createdAt,value
2018-06-12T00:01:20.487Z,23.90
2018-06-12T00:03:48.047Z,23.90
2018-06-12T00:06:15.627Z,23.80
2018-06-12T00:08:43.166Z,23.70
2018-06-12T00:11:10.724Z,23.70
2018-06-12T00:13:38.235Z,23.60
2018-06-12T00:16:05.799Z,23.60
2018-06-12T00:18:33.355Z,23.50
2018-06-12T00:23:28.591Z,23.40
2018-06-12T00:28:23.787Z,23.30
2018-06-12T00:30:51.338Z,23.30
2018-06-12T00:33:19.104Z,23.30
2018-06-12T00:35:46.692Z,23.20
2018-06-12T00:38:14.239Z,23.10
2018-06-12T00:40:42.334Z,23.10
2018-06-12T00:43:10.283Z,23.00
2018-06-12T00:45:37.912Z,23.00
2018-06-12T00:48:05.576Z,22.90
2018-06-12T00:50:33.132Z,22.80
2018-06-12T00:55:28.387Z,22.60
2018-06-12T00:57:55.924Z,22.50
2018-06-12T01:00:23.549Z,22.40
2018-06-12T01:02:51.207Z,22.30
2018-06-12T01:05:18.787Z,22.20
2018-06-12T01:07:46.339Z,22.10
2018-06-12T01:10:13.907Z,21.90
2018-06-12T01:12:41.586Z,21.80
2018-06-12T01:17:36.830Z,21.60
2018-06-12T01:20:04.456Z,21.50
2018-06-12T01:22:32.077Z,21.40
2018-06-12T01:24:59.818Z,21.30
2018-06-12T01:27:27.383Z,21.20
2018-06-12T01:29:54.968Z,21.10
2018-06-12T01:32:22.539Z,21.00
2018-06-12T01:34:50.092Z,20.90
2018-06-12T01:37:17.771Z,20.80
2018-06-12T01:39:45.375Z,20.70
2018-06-12T01:42:12.944Z,20.70
2018-06-12T01:44:40.533Z,20.60
2018-06-12T01:47:08.231Z,20.50
2018-06-12T01:49:35.776Z,20.40
2018-06-12T01:52:03.334Z,20.40
2018-06-12T01:54:30.949Z,20.40
2018-06-12T01:56:58.596Z,20.30
2018-06-12T01:59:26.379Z,20.30
2018-06-12T02:01:54.022Z,20.30
2018-06-12T02:04:21.738Z,20.30
2018-06-12T02:06:51.480Z,20.20
2018-06-12T02:09:19.442Z,20.30
2018-06-12T02:11:47.123Z,20.20
2018-06-12T02:14:14.690Z,20.20
2018-06-12T02:16:42.308Z,20.20
2018-06-12T02:19:09.988Z,20.20
2018-06-12T02:21:37.564Z,20.20
2018-06-12T02:24:05.307Z,20.20
2018-06-12T02:26:32.898Z,20.20
2018-06-12T02:29:00.476Z,20.20
2018-06-12T02:31:28.024Z,20.20
2018-06-12T02:33:55.625Z,20.20
2018-06-12T02:36:23.217Z,20.20
2018-06-12T02:38:50.839Z,20.20
2018-06-12T02:41:18.414Z,20.20
2018-06-12T02:43:45.988Z,20.10
2018-06-12T02:46:13.631Z,20.10
2018-06-12T02:48:41.237Z,20.10
2018-06-12T02:51:08.883Z,20.00
2018-06-12T02:53:36.459Z,20.00
2018-06-12T02:56:04.305Z,20.00
2018-06-12T02:58:31.897Z,20.00
2018-06-12T03:00:59.465Z,19.90
2018-06-12T03:03:27.126Z,19.90
2018-06-12T03:05:55.053Z,19.90
2018-06-12T03:08:22.641Z,19.90
2018-06-12T03:10:50.224Z,19.90
2018-06-12T03:13:17.860Z,19.80
2018-06-12T03:15:45.524Z,19.80
2018-06-12T03:18:13.112Z,19.80
2018-06-12T03:20:44.109Z,19.80
2018-06-12T03:23:11.716Z,19.80
2018-06-12T03:25:39.387Z,19.80
2018-06-12T03:28:07.323Z,19.70
2018-06-12T03:30:34.925Z,19.70
2018-06-12T03:33:02.519Z,19.70
2018-06-12T03:35:30.083Z,19.70
2018-06-12T03:37:57.699Z,19.70
2018-06-12T03:40:25.289Z,19.70
2018-06-12T03:42:52.934Z,19.70
2018-06-12T03:45:20.550Z,19.70
2018-06-12T03:47:48.144Z,19.70
2018-06-12T03:50:15.820Z,19.70
2018-06-12T03:52:43.415Z,19.70
2018-06-12T03:55:11.091Z,19.70
2018-06-12T03:57:38.765Z,19.70
2018-06-12T04:00:06.463Z,19.70
2018-06-12T04:02:34.249Z,19.70
2018-06-12T04:05:01.945Z,19.70
2018-06-12T04:07:29.751Z,19.70
2018-06-12T04:09:57.352Z,19.70
2018-06-12T04:12:24.988Z,19.70
2018-06-12T04:14:52.740Z,19.70
2018-06-12T04:17:20.392Z,19.70
2018-06-12T04:19:47.971Z,19.70
2018-06-12T04:22:15.529Z,19.70
2018-06-12T04:24:43.161Z,19.70
2018-06-12T04:27:10.785Z,19.70
2018-06-12T04:29:38.443Z,19.70
2018-06-12T04:32:06.068Z,19.80
2018-06-12T04:34:33.635Z,19.80
2018-06-12T04:37:01.219Z,19.80
2018-06-12T04:39:28.800Z,19.80
2018-06-12T04:41:56.435Z,19.80
2018-06-12T04:44:24.036Z,19.80
2018-06-12T04:46:51.673Z,19.80
2018-06-12T04:49:19.344Z,19.80
2018-06-12T04:51:46.973Z,19.80
2018-06-12T04:54:14.545Z,19.80
2018-06-12T04:56:42.184Z,19.80
2018-06-12T04:59:09.816Z,19.90
2018-06-12T05:01:38.033Z,19.90
2018-06-12T05:04:05.646Z,19.90
2018-06-12T05:06:33.251Z,19.90
2018-06-12T05:09:00.868Z,19.90
2018-06-12T05:11:28.484Z,19.90
2018-06-12T05:13:56.130Z,20.00
2018-06-12T05:16:23.760Z,19.90
2018-06-12T05:18:51.390Z,20.00
2018-06-12T05:21:19.100Z,20.00
2018-06-12T05:23:46.732Z,20.00
2018-06-12T05:26:14.341Z,20.00
2018-06-12T05:28:41.917Z,20.10
2018-06-12T05:31:09.534Z,20.10
2018-06-12T05:33:38.132Z,20.10
2018-06-12T05:36:05.711Z,20.10
2018-06-12T05:38:33.382Z,20.20
2018-06-12T05:41:01.000Z,20.20
2018-06-12T06:03:10.334Z,20.20
2018-06-12T06:05:38.852Z,20.20
2018-06-12T06:08:06.461Z,19.50
2018-06-12T06:10:34.072Z,19.50
2018-06-12T06:13:01.830Z,19.50
2018-06-12T06:15:29.416Z,19.50
2018-06-12T06:17:57.203Z,19.60
2018-06-12T06:20:24.809Z,19.60
2018-06-12T06:22:52.400Z,19.70
2018-06-12T06:25:20.017Z,19.80
2018-06-12T06:27:47.649Z,19.80
2018-06-12T06:30:15.314Z,19.90
2018-06-12T06:32:42.916Z,19.90
2018-06-12T06:35:10.516Z,20.00
2018-06-12T06:37:38.106Z,20.10
2018-06-12T06:40:05.751Z,20.10
2018-06-12T06:42:33.402Z,20.20
2018-06-12T06:45:01.036Z,20.20
2018-06-12T06:47:28.768Z,20.30
2018-06-12T06:49:56.364Z,20.30
2018-06-12T06:52:24.079Z,20.40
2018-06-12T06:54:51.744Z,20.40
2018-06-12T06:57:19.403Z,20.50
2018-06-12T06:59:47.042Z,20.50
2018-06-12T07:02:14.632Z,20.60
2018-06-12T07:04:42.239Z,20.70
2018-06-12T07:07:10.110Z,20.90
2018-06-12T07:09:37.724Z,21.00
2018-06-12T07:12:05.401Z,21.10
2018-06-12T07:14:33.265Z,21.20
2018-06-12T07:17:00.983Z,21.30
2018-06-12T07:19:28.699Z,21.30
2018-06-12T07:21:56.255Z,21.40
2018-06-12T07:24:23.913Z,21.50
2018-06-12T07:26:51.573Z,21.60
2018-06-12T07:29:19.357Z,21.70
2018-06-12T07:31:46.967Z,21.80
2018-06-12T07:34:14.566Z,21.90
2018-06-12T07:36:42.195Z,22.00
2018-06-12T07:39:09.792Z,22.00
2018-06-12T07:41:37.875Z,22.10
2018-06-12T07:44:06.499Z,22.20
2018-06-12T07:46:34.073Z,22.30
2018-06-12T07:49:01.741Z,22.30
2018-06-12T07:51:29.353Z,22.50
2018-06-12T07:53:56.959Z,22.60
2018-06-12T07:56:24.574Z,22.70
2018-06-12T08:01:19.844Z,22.90
2018-06-12T08:03:47.496Z,23.00
2018-06-12T08:06:15.113Z,23.10
2018-06-12T08:08:42.675Z,23.10
2018-06-12T08:11:10.284Z,23.20
2018-06-12T08:13:37.865Z,23.20
2018-06-12T08:16:05.472Z,23.30
2018-06-12T08:18:33.103Z,23.40
2018-06-12T08:21:00.692Z,23.40
2018-06-12T08:23:28.300Z,23.60
2018-06-12T08:25:55.875Z,23.60
2018-06-12T08:28:23.543Z,23.70
2018-06-12T08:30:51.130Z,23.80
2018-06-12T08:33:18.741Z,23.90
2018-06-12T08:35:46.323Z,24.00
2018-06-12T08:38:13.912Z,24.00
2018-06-12T08:40:41.483Z,24.10
2018-06-12T08:43:09.440Z,24.10
2018-06-12T08:45:37.097Z,24.20
2018-06-12T08:48:04.864Z,24.30
2018-06-12T08:53:00.240Z,24.40
2018-06-12T08:55:27.843Z,24.60
2018-06-12T08:57:55.472Z,24.70
2018-06-12T09:00:23.098Z,24.80
2018-06-12T09:02:50.684Z,24.90
2018-06-12T09:05:18.256Z,25.00
2018-06-12T09:07:45.966Z,25.10
2018-06-12T09:10:13.568Z,25.30
2018-06-12T09:12:41.172Z,25.40
2018-06-12T09:15:08.762Z,25.50
2018-06-12T09:17:36.379Z,25.60
2018-06-12T09:20:04.156Z,25.70
2018-06-12T09:24:59.917Z,26.10
2018-06-12T09:27:27.542Z,26.20
2018-06-12T09:29:55.136Z,26.30
2018-06-12T09:32:22.713Z,26.50
2018-06-12T09:34:50.288Z,26.60
2018-06-12T09:37:17.887Z,26.70
2018-06-12T09:39:45.568Z,26.90
2018-06-12T09:42:14.228Z,27.00
2018-06-12T09:44:41.789Z,27.20
2018-06-12T09:47:09.387Z,27.30
2018-06-12T09:49:36.970Z,27.40
2018-06-12T09:52:04.628Z,27.50
2018-06-12T09:54:32.300Z,27.60
2018-06-12T09:56:59.964Z,27.60
2018-06-12T09:59:27.604Z,27.60
2018-06-12T10:01:55.187Z,27.60
2018-06-12T10:04:22.827Z,27.60
2018-06-12T10:06:50.448Z,27.60
2018-06-12T10:09:18.072Z,27.60
2018-06-12T10:11:45.696Z,27.60
2018-06-12T10:14:13.287Z,27.60
2018-06-12T10:16:40.872Z,27.50
2018-06-12T10:19:08.459Z,27.60
2018-06-12T10:21:36.016Z,27.60
2018-06-12T10:24:03.756Z,27.60
2018-06-12T10:26:31.355Z,27.60
2018-06-12T10:28:58.969Z,27.60
2018-06-12T10:31:26.637Z,27.70
2018-06-12T10:33:54.209Z,27.80
2018-06-12T10:36:21.830Z,27.90
2018-06-12T10:38:49.682Z,28.00
2018-06-12T10:41:17.301Z,28.00
2018-06-12T10:43:44.958Z,28.10
2018-06-12T10:46:12.608Z,28.10
2018-06-12T10:48:40.240Z,28.10
2018-06-12T10:51:07.944Z,28.10
2018-06-12T10:53:35.509Z,28.10
2018-06-12T10:56:03.175Z,28.10
2018-06-12T10:58:30.743Z,28.10
2018-06-12T11:00:58.372Z,28.10
2018-06-12T11:03:26.001Z,28.10
2018-06-12T11:05:53.696Z,28.10
2018-06-12T11:08:21.271Z,28.20
2018-06-12T11:10:48.878Z,28.20
2018-06-12T11:13:16.504Z,28.20
2018-06-12T11:15:44.088Z,28.20
2018-06-12T11:18:11.739Z,28.20
2018-06-12T11:20:39.328Z,28.30
2018-06-12T11:23:06.935Z,28.30
2018-06-12T11:25:34.516Z,28.40
2018-06-12T11:28:02.232Z,28.50
2018-06-12T11:33:04.304Z,28.90
2018-06-12T11:35:31.810Z,29.10
2018-06-12T11:37:59.367Z,29.40
2018-06-12T11:40:27.784Z,29.60
2018-06-12T11:42:55.351Z,29.90
2018-06-12T11:45:22.988Z,30.20
2018-06-12T11:47:50.573Z,30.40
2018-06-12T11:50:18.979Z,30.70
2018-06-12T11:52:46.604Z,30.90
2018-06-12T11:55:20.300Z,31.20
2018-06-12T11:57:47.895Z,31.30
2018-06-12T12:00:15.533Z,31.50
2018-06-12T12:02:43.144Z,31.60
2018-06-12T12:05:10.714Z,31.70
2018-06-12T12:07:38.389Z,31.80
2018-06-12T12:10:05.996Z,31.90
2018-06-12T12:12:33.859Z,32.00
2018-06-12T12:15:01.501Z,32.00
2018-06-12T12:17:29.055Z,32.10
2018-06-12T12:19:56.665Z,32.10
2018-06-12T12:22:24.228Z,32.10
2018-06-12T12:27:19.435Z,32.10
2018-06-12T12:29:47.302Z,32.10
2018-06-12T12:32:14.885Z,32.10
2018-06-12T12:34:42.512Z,32.10
2018-06-12T12:37:10.076Z,32.20
2018-06-12T12:39:37.639Z,32.20
2018-06-12T12:42:05.215Z,32.30
2018-06-12T12:44:32.768Z,32.30
2018-06-12T12:47:00.328Z,32.30
2018-06-12T12:49:27.895Z,32.30
2018-06-12T12:51:55.513Z,32.30
2018-06-12T12:54:23.041Z,32.30
2018-06-12T12:56:50.661Z,32.30
2018-06-12T12:59:18.292Z,32.40
2018-06-12T13:01:45.903Z,32.40
2018-06-12T13:04:13.888Z,32.40
2018-06-12T13:06:41.484Z,32.40
2018-06-12T13:09:09.113Z,32.40
2018-06-12T13:11:36.779Z,32.30
2018-06-12T13:14:04.405Z,32.20
2018-06-12T13:16:31.964Z,32.10
2018-06-12T13:18:59.615Z,32.00
2018-06-12T13:21:27.210Z,31.90
2018-06-12T13:23:54.768Z,31.80
2018-06-12T13:26:22.344Z,31.70
2018-06-12T13:28:49.905Z,31.70
2018-06-12T13:31:17.511Z,31.60
2018-06-12T13:33:45.110Z,31.50
2018-06-12T13:36:13.385Z,31.40
2018-06-12T13:38:41.582Z,31.40
2018-06-12T13:41:09.374Z,31.30
2018-06-12T13:43:37.004Z,31.30
2018-06-12T13:46:04.979Z,31.10
2018-06-12T13:48:32.720Z,31.10
2018-06-12T13:51:00.393Z,31.00
2018-06-12T13:53:28.226Z,30.90
2018-06-12T13:55:55.849Z,30.80
2018-06-12T13:58:23.791Z,30.70
2018-06-12T14:00:51.435Z,30.70
2018-06-12T14:03:18.992Z,30.60
2018-06-12T14:05:47.520Z,30.50
2018-06-12T14:08:15.422Z,30.50
2018-06-12T14:10:43.346Z,30.40
2018-06-12T14:13:11.010Z,30.40
2018-06-12T14:18:06.352Z,30.30
2018-06-12T14:20:33.903Z,30.30
2018-06-12T14:23:01.630Z,30.30
2018-06-12T14:25:29.335Z,30.30
2018-06-12T14:27:56.988Z,30.20
2018-06-12T14:30:24.569Z,30.20
2018-06-12T14:32:52.113Z,30.20
2018-06-12T14:35:19.689Z,30.10
2018-06-12T14:37:48.053Z,30.10
2018-06-12T14:40:15.706Z,30.00
2018-06-12T14:42:43.257Z,29.90
2018-06-12T14:45:10.882Z,29.80
2018-06-12T14:47:38.465Z,29.70
2018-06-12T14:50:06.059Z,29.60
2018-06-12T14:52:33.688Z,29.60
2018-06-12T14:55:01.275Z,29.50
2018-06-12T14:57:28.860Z,29.50
2018-06-12T14:59:56.497Z,29.50
2018-06-12T15:02:24.167Z,29.40
2018-06-12T15:04:51.752Z,29.30
2018-06-12T15:07:19.335Z,29.30
2018-06-12T15:09:46.992Z,29.30
2018-06-12T15:12:14.557Z,29.30
2018-06-12T15:14:42.131Z,29.20
2018-06-12T15:17:09.728Z,29.10
2018-06-12T15:19:37.419Z,29.10
2018-06-12T15:22:05.014Z,29.00
2018-06-12T15:24:32.756Z,28.90
2018-06-12T15:27:00.377Z,28.80
2018-06-12T15:29:28.103Z,28.80
2018-06-12T15:31:55.706Z,28.70
2018-06-12T15:34:23.317Z,28.70
2018-06-12T15:36:50.905Z,28.60
2018-06-12T15:39:19.834Z,28.60
2018-06-12T15:41:47.508Z,28.50
2018-06-12T15:44:15.092Z,28.50
2018-06-12T15:46:42.696Z,28.50
2018-06-12T15:49:10.328Z,28.50
2018-06-12T15:56:33.789Z,28.40
2018-06-12T15:59:01.452Z,28.40
2018-06-12T16:01:29.072Z,28.30
2018-06-12T16:03:56.667Z,28.30
2018-06-12T16:06:24.360Z,28.30
2018-06-12T16:08:51.956Z,28.20
2018-06-12T16:11:19.596Z,28.10
2018-06-12T16:13:47.187Z,28.10
2018-06-12T16:16:14.790Z,28.00
2018-06-12T16:18:42.383Z,27.90
2018-06-12T16:21:10.017Z,27.90
2018-06-12T16:23:37.591Z,27.80
2018-06-12T16:26:05.281Z,27.80
2018-06-12T16:31:00.497Z,27.80
2018-06-12T16:33:28.146Z,27.70
2018-06-12T16:35:55.795Z,27.70
2018-06-12T16:38:23.408Z,27.80
2018-06-12T16:40:51.329Z,27.70
2018-06-12T16:43:18.976Z,27.70
2018-06-12T16:45:46.628Z,27.70
2018-06-12T16:48:14.240Z,27.70
2018-06-12T16:50:41.857Z,27.70
2018-06-12T16:53:09.451Z,27.60
2018-06-12T16:55:37.037Z,27.60
2018-06-12T16:58:04.716Z,27.60
2018-06-12T17:00:32.396Z,27.60
2018-06-12T17:02:59.999Z,27.50
2018-06-12T17:05:27.960Z,27.50
2018-06-12T17:07:55.613Z,27.60
2018-06-12T17:10:23.257Z,27.60
2018-06-12T17:12:50.963Z,27.50
2018-06-12T17:15:18.548Z,27.50
2018-06-12T17:17:46.274Z,27.50
2018-06-12T17:20:13.964Z,27.40
2018-06-12T17:22:41.624Z,27.30
2018-06-12T17:25:09.299Z,27.30
2018-06-12T17:27:36.992Z,27.20
2018-06-12T17:30:05.296Z,27.10
2018-06-12T17:32:32.972Z,27.00
2018-06-12T17:35:00.628Z,26.90
2018-06-12T17:37:28.328Z,26.80
2018-06-12T17:39:55.983Z,26.80
2018-06-12T17:42:23.793Z,26.70
2018-06-12T17:44:51.475Z,26.60
2018-06-12T17:47:19.200Z,26.50
2018-06-12T17:49:46.883Z,26.30
2018-06-12T17:52:14.487Z,26.20
2018-06-12T17:57:09.853Z,26.00
2018-06-12T17:59:37.474Z,25.90
2018-06-12T18:02:05.693Z,25.70
2018-06-12T18:04:33.276Z,25.60
2018-06-12T18:07:00.925Z,25.50
2018-06-12T18:09:28.573Z,25.50
2018-06-12T18:11:56.221Z,25.30
2018-06-12T18:14:23.931Z,25.30
2018-06-12T18:16:51.567Z,25.20
2018-06-12T18:19:19.207Z,25.10
2018-06-12T18:21:46.896Z,25.00
2018-06-12T18:24:14.616Z,24.90
2018-06-12T18:26:42.404Z,24.90
2018-06-12T18:29:10.055Z,24.80
2018-06-12T18:31:37.728Z,24.80
2018-06-12T18:34:05.429Z,24.70
2018-06-12T18:36:33.107Z,24.60
2018-06-12T18:39:00.750Z,24.60
2018-06-12T18:41:28.366Z,24.50
2018-06-12T18:43:56.382Z,24.40
2018-06-12T18:46:24.383Z,24.40
2018-06-12T18:48:52.125Z,24.30
2018-06-12T18:51:19.757Z,24.20
2018-06-12T18:56:15.076Z,24.10
2018-06-12T18:58:42.696Z,24.00
2018-06-12T19:01:10.292Z,24.00
2018-06-12T19:03:37.976Z,23.90
2018-06-12T19:06:06.502Z,23.90
2018-06-12T19:08:34.185Z,23.80
2018-06-12T19:11:01.842Z,23.80
2018-06-12T19:13:29.577Z,23.70
2018-06-12T19:15:57.235Z,23.70
2018-06-12T19:18:25.134Z,23.70
2018-06-12T19:20:53.124Z,23.60
2018-06-12T19:23:20.729Z,23.60
2018-06-12T19:25:48.336Z,23.50
2018-06-12T19:28:16.016Z,23.50
2018-06-12T19:30:43.707Z,23.50
2018-06-12T19:33:11.340Z,23.50
2018-06-12T19:35:38.937Z,23.40
2018-06-12T19:38:06.641Z,23.40
2018-06-12T19:40:34.272Z,23.30
2018-06-12T19:43:01.935Z,23.30
2018-06-12T19:45:29.926Z,23.30
2018-06-12T19:47:57.527Z,23.30
2018-06-12T19:50:25.107Z,23.20
2018-06-12T19:52:52.757Z,23.20
2018-06-12T19:55:20.381Z,23.10
2018-06-12T19:57:48.040Z,23.10
2018-06-12T20:00:15.715Z,23.10
2018-06-12T20:02:43.308Z,23.00
2018-06-12T20:05:10.957Z,23.00
2018-06-12T20:07:38.652Z,22.90
2018-06-12T20:10:06.352Z,22.90
2018-06-12T20:12:33.959Z,22.80
2018-06-12T20:15:01.642Z,22.80
2018-06-12T20:17:29.235Z,22.80
2018-06-12T20:19:56.875Z,22.70
2018-06-12T20:22:24.504Z,22.70
2018-06-12T20:24:52.146Z,22.70
2018-06-12T20:27:19.759Z,22.60
2018-06-12T20:29:47.355Z,22.70
2018-06-12T20:32:15.049Z,22.60
2018-06-12T20:34:42.655Z,22.60
2018-06-12T20:37:10.252Z,22.50
2018-06-12T20:39:37.907Z,22.60
2018-06-12T20:42:05.618Z,22.60
2018-06-12T20:44:33.239Z,22.50
2018-06-12T20:47:00.815Z,22.50
2018-06-12T20:49:28.475Z,22.50
2018-06-12T20:51:56.173Z,22.50
2018-06-12T20:54:23.803Z,22.50
2018-06-12T20:56:51.436Z,22.40
2018-06-12T20:59:19.056Z,22.40
2018-06-12T21:01:46.711Z,22.40
2018-06-12T21:04:14.368Z,22.30
2018-06-12T21:06:42.082Z,22.30
2018-06-12T21:09:09.714Z,22.30
2018-06-12T21:11:37.327Z,22.20
2018-06-12T21:14:05.009Z,22.20
2018-06-12T21:16:33.080Z,22.10
2018-06-12T21:19:00.679Z,22.10
2018-06-12T21:21:28.361Z,22.10
2018-06-12T21:23:56.020Z,22.10
2018-06-12T21:26:23.594Z,22.00
2018-06-12T21:28:51.252Z,22.00
2018-06-12T21:31:18.844Z,22.00
2018-06-12T21:33:46.493Z,22.00
2018-06-12T21:36:14.155Z,22.00
2018-06-12T21:38:41.808Z,22.00
2018-06-12T21:41:09.449Z,22.00
2018-06-12T21:43:37.128Z,22.00
2018-06-12T21:46:05.251Z,22.00
2018-06-12T21:48:32.891Z,22.00
2018-06-12T21:51:00.568Z,21.90
2018-06-12T21:53:28.267Z,22.00
2018-06-12T21:55:55.887Z,21.90
2018-06-12T21:58:23.487Z,21.90
2018-06-12T22:00:51.068Z,21.90
2018-06-12T22:03:18.765Z,21.90
2018-06-12T22:05:46.328Z,21.90
2018-06-12T22:08:14.813Z,21.80
2018-06-12T22:10:42.417Z,21.80
2018-06-12T22:13:10.020Z,21.80
2018-06-12T22:15:37.697Z,21.80
2018-06-12T22:18:06.256Z,21.80
2018-06-12T22:23:01.524Z,21.80
2018-06-12T22:25:29.176Z,21.80
2018-06-12T22:27:56.805Z,21.80
2018-06-12T22:30:24.448Z,21.70
2018-06-12T22:32:52.055Z,21.70
2018-06-12T22:37:47.427Z,21.70
2018-06-12T22:40:14.987Z,21.70
2018-06-12T22:42:42.637Z,21.70
2018-06-12T22:45:10.241Z,21.60
2018-06-12T22:47:37.847Z,21.60
2018-06-12T22:50:05.510Z,21.60
2018-06-12T22:52:33.109Z,21.60
2018-06-12T22:55:00.742Z,21.60
2018-06-12T22:57:28.319Z,21.50
2018-06-12T22:59:55.978Z,21.50
2018-06-12T23:02:23.595Z,21.50
2018-06-12T23:04:51.167Z,21.50
2018-06-12T23:07:18.797Z,21.40
2018-06-12T23:09:46.435Z,21.40
2018-06-12T23:12:14.011Z,21.40
2018-06-12T23:14:41.631Z,21.40
2018-06-12T23:17:09.235Z,21.40
2018-06-12T23:19:54.818Z,21.30
2018-06-12T23:22:22.368Z,21.30
2018-06-12T23:24:49.991Z,21.30
2018-06-12T23:27:17.575Z,21.30
2018-06-12T23:29:45.203Z,21.20
2018-06-12T23:32:12.808Z,21.20
2018-06-12T23:34:40.396Z,21.20
2018-06-12T23:37:08.089Z,21.10
2018-06-12T23:39:35.737Z,21.10
2018-06-12T23:42:03.413Z,21.00
2018-06-12T23:44:30.967Z,21.00
2018-06-12T23:46:58.565Z,21.00
2018-06-12T23:49:26.151Z,21.00
2018-06-12T23:51:53.869Z,21.00
2018-06-12T23:54:21.449Z,21.00
2018-06-12T23:59:16.752Z,21.00
